Cofield, North Carolina
Current Conditions -  °F | °C
As of 1:30 AM on Wednesday 28 Jan 2015 (Local Time) from KASJ Reporting Station
Broken Clouds Broken Clouds  
Wind Chill: 27°   Ceiling: 12000
Heat Index: 32°   Visibility: 10mi
Dew Point: 24°   Wind: 5mph
Humidity: 71%   Direction: 340°NNW
Pressure: 30"   Gusts: NA
Location:  36.36°N, 76.91°W
Report Text: KASJ 280630Z AUTO 34004KT 10SM SCT065 BKN120 00/M05 A3000 RMK AO2 T00001046
Loading
Personal Weather Stations






























Interactive Weather Map New forecast layout! Learn more

10-Day Weather Forecast

Advertisements
Track Severe Weather on mobile